createdAt,value
2023-01-29T00:01:24.054Z,-1.90
2023-01-29T00:03:51.604Z,-1.90
2023-01-29T00:08:46.688Z,-1.90
2023-01-29T00:11:14.008Z,-1.90
2023-01-29T00:13:40.651Z,-1.90
2023-01-29T00:21:10.317Z,-2.00
2023-01-29T00:23:37.238Z,-2.00
2023-01-29T00:28:31.002Z,-2.00
2023-01-29T00:30:57.798Z,-2.00
2023-01-29T00:43:50.361Z,-2.00
2023-01-29T00:46:17.123Z,-2.10
2023-01-29T00:48:43.898Z,-2.00
2023-01-29T00:51:10.559Z,-2.00
2023-01-29T00:58:34.149Z,-2.10
2023-01-29T01:03:30.055Z,-2.10
2023-01-29T01:06:07.127Z,-2.10
2023-01-29T01:08:52.331Z,-2.20
2023-01-29T01:21:09.939Z,-2.20
2023-01-29T01:23:36.668Z,-2.20
2023-01-29T01:30:57.655Z,-2.30
2023-01-29T01:33:24.506Z,-2.30
2023-01-29T01:35:51.196Z,-2.30
2023-01-29T01:40:46.448Z,-2.30
2023-01-29T01:43:13.160Z,-2.30
2023-01-29T01:48:26.695Z,-2.40
2023-01-29T01:53:30.723Z,-2.70
2023-01-29T01:58:35.304Z,-2.60
2023-01-29T02:03:53.171Z,-2.60
2023-01-29T02:16:48.063Z,-2.70
2023-01-29T02:19:31.979Z,-2.60
2023-01-29T02:22:36.780Z,-2.70
2023-01-29T02:25:29.558Z,-2.70
2023-01-29T02:28:21.458Z,-2.70
2023-01-29T02:33:53.728Z,-2.70
2023-01-29T02:36:38.461Z,-2.70
2023-01-29T02:39:40.598Z,-2.70
2023-01-29T02:50:54.294Z,-2.70
2023-01-29T02:53:52.896Z,-2.70
2023-01-29T02:58:57.370Z,-2.70
2023-01-29T03:01:33.755Z,-2.70
2023-01-29T03:16:35.887Z,-2.70
2023-01-29T03:30:20.372Z,-2.70
2023-01-29T03:42:57.732Z,-2.80
2023-01-29T03:48:29.110Z,-2.80
2023-01-29T03:56:40.858Z,-2.90
2023-01-29T03:59:21.094Z,-2.90
2023-01-29T04:01:51.122Z,-2.90
2023-01-29T04:04:38.087Z,-2.90
2023-01-29T04:09:49.771Z,-3.00
2023-01-29T04:12:21.873Z,-3.00
2023-01-29T04:27:45.909Z,-3.00
2023-01-29T04:32:59.672Z,-2.90
2023-01-29T04:35:47.573Z,-3.00
2023-01-29T04:38:32.697Z,-3.00
2023-01-29T04:54:18.921Z,-3.10
2023-01-29T05:02:03.787Z,-3.10
2023-01-29T05:09:33.221Z,-3.20
2023-01-29T05:14:30.528Z,-3.20
2023-01-29T05:19:26.511Z,-3.10
2023-01-29T05:21:53.649Z,-3.20
2023-01-29T05:24:23.542Z,-3.20
2023-01-29T05:27:12.852Z,-3.20
2023-01-29T05:29:45.339Z,-3.20
2023-01-29T05:34:39.471Z,-3.30
2023-01-29T05:44:27.650Z,-3.30
2023-01-29T05:51:49.330Z,-3.30
2023-01-29T05:54:16.098Z,-3.30
2023-01-29T05:59:10.163Z,-3.20
2023-01-29T06:01:37.499Z,-3.30
2023-01-29T06:04:04.360Z,-3.10
2023-01-29T06:11:25.344Z,-3.10
2023-01-29T06:16:19.187Z,-3.00
2023-01-29T06:21:14.018Z,-3.10
2023-01-29T06:23:41.063Z,-3.10
2023-01-29T06:26:11.671Z,-3.10
2023-01-29T06:33:53.304Z,-3.20
2023-01-29T06:36:20.009Z,-3.30
2023-01-29T06:41:18.036Z,-3.30
2023-01-29T06:43:45.572Z,-3.20
2023-01-29T06:51:07.979Z,-3.30
2023-01-29T06:53:36.075Z,-3.20
2023-01-29T06:56:03.225Z,-3.10
2023-01-29T07:01:15.497Z,-2.90
2023-01-29T07:06:19.677Z,-2.90
2023-01-29T07:11:13.706Z,-2.90
2023-01-29T07:16:07.732Z,-2.80
2023-01-29T07:18:34.805Z,-2.80
2023-01-29T07:21:05.520Z,-2.70
2023-01-29T07:23:32.365Z,-2.70
2023-01-29T07:26:05.529Z,-2.70
2023-01-29T07:28:35.579Z,-2.60
2023-01-29T07:40:53.106Z,-2.20
2023-01-29T07:45:47.633Z,-2.20
2023-01-29T07:48:14.481Z,-2.10
2023-01-29T07:50:41.869Z,-2.10
2023-01-29T07:53:15.457Z,-2.00
2023-01-29T07:55:45.300Z,-1.90
2023-01-29T07:58:12.501Z,-1.90
2023-01-29T08:00:39.284Z,-1.80
2023-01-29T08:03:09.507Z,-1.70
2023-01-29T08:05:36.188Z,-1.60
2023-01-29T08:10:39.156Z,-1.40
2023-01-29T08:13:06.876Z,-1.30
2023-01-29T08:18:03.099Z,-1.30
2023-01-29T08:23:01.666Z,-1.20
2023-01-29T08:28:00.097Z,-1.10
2023-01-29T08:30:30.033Z,-1.10
2023-01-29T08:35:24.833Z,-1.10
2023-01-29T08:37:59.910Z,-1.10
2023-01-29T08:40:28.091Z,-1.00
2023-01-29T08:43:03.465Z,-1.00
2023-01-29T08:45:33.278Z,-1.00
2023-01-29T08:52:59.181Z,-0.90
2023-01-29T08:55:27.188Z,-0.80
2023-01-29T08:57:54.231Z,-0.70
2023-01-29T09:00:21.285Z,-0.60
2023-01-29T09:07:42.813Z,-0.50
2023-01-29T09:10:10.063Z,-0.50
2023-01-29T09:12:36.759Z,-0.40
2023-01-29T09:15:03.978Z,-0.40
2023-01-29T09:19:58.683Z,-0.30
2023-01-29T09:22:25.447Z,-0.30
2023-01-29T09:24:52.161Z,-0.30
2023-01-29T09:27:18.861Z,-0.20
2023-01-29T09:29:45.537Z,-0.20
2023-01-29T09:32:12.289Z,0.00
2023-01-29T09:42:12.892Z,0.20
2023-01-29T09:44:58.247Z,0.40
2023-01-29T09:47:27.149Z,0.50
2023-01-29T09:50:23.449Z,0.60
2023-01-29T09:52:53.967Z,0.70
2023-01-29T09:55:28.573Z,0.70
2023-01-29T09:57:59.325Z,0.80
2023-01-29T10:00:40.535Z,0.90
2023-01-29T10:03:38.270Z,0.80
2023-01-29T10:06:38.213Z,0.90
2023-01-29T10:09:32.622Z,1.10
2023-01-29T10:12:14.588Z,1.10
2023-01-29T10:15:00.456Z,1.20
2023-01-29T10:17:54.936Z,1.30
2023-01-29T10:20:27.348Z,1.40
2023-01-29T10:23:10.602Z,1.50
2023-01-29T10:25:41.725Z,1.90
2023-01-29T10:28:37.136Z,1.70
2023-01-29T10:31:29.283Z,1.70
2023-01-29T10:34:02.765Z,1.80
2023-01-29T10:36:38.288Z,1.70
2023-01-29T10:39:05.138Z,1.80
2023-01-29T10:44:23.910Z,1.70
2023-01-29T10:47:02.599Z,1.70
2023-01-29T10:49:55.055Z,1.60
2023-01-29T10:52:28.884Z,1.60
2023-01-29T10:55:15.957Z,1.50
2023-01-29T10:58:03.226Z,1.40
2023-01-29T11:00:39.106Z,1.30
2023-01-29T11:03:38.398Z,1.30
2023-01-29T11:06:21.482Z,1.40
2023-01-29T11:08:57.089Z,1.50
2023-01-29T11:11:50.912Z,1.50
2023-01-29T11:14:58.729Z,1.60
2023-01-29T11:17:26.228Z,1.60
2023-01-29T11:19:57.866Z,1.60
2023-01-29T11:22:29.605Z,1.60
2023-01-29T11:25:19.234Z,1.90
2023-01-29T11:27:47.207Z,2.00
2023-01-29T11:30:28.541Z,2.10
2023-01-29T11:33:18.272Z,2.30
2023-01-29T11:35:45.118Z,2.50
2023-01-29T11:38:32.097Z,2.60
2023-01-29T11:41:07.141Z,2.50
2023-01-29T11:46:05.012Z,2.50
2023-01-29T11:48:40.990Z,2.50
2023-01-29T11:51:10.625Z,2.60
2023-01-29T11:53:43.674Z,2.60
2023-01-29T11:56:20.861Z,2.60
2023-01-29T11:58:49.286Z,2.60
2023-01-29T12:01:18.242Z,2.60
2023-01-29T12:03:53.023Z,2.70
2023-01-29T12:06:24.095Z,2.70
2023-01-29T12:09:00.101Z,2.80
2023-01-29T12:11:34.874Z,2.80
2023-01-29T12:14:20.139Z,2.90
2023-01-29T12:17:19.592Z,2.80
2023-01-29T12:19:55.216Z,2.80
2023-01-29T12:22:42.280Z,3.00
2023-01-29T12:25:39.942Z,3.00
2023-01-29T12:28:22.863Z,3.00
2023-01-29T12:31:16.518Z,2.90
2023-01-29T12:33:52.441Z,2.90
2023-01-29T12:36:37.071Z,3.00
2023-01-29T12:39:03.955Z,2.90
2023-01-29T12:41:41.792Z,2.90
2023-01-29T12:44:24.153Z,2.90
2023-01-29T12:46:56.240Z,2.90
2023-01-29T12:49:28.332Z,2.90
2023-01-29T12:52:07.643Z,2.90
2023-01-29T12:54:42.868Z,3.00
2023-01-29T12:57:44.813Z,2.90
2023-01-29T13:00:21.101Z,3.00
2023-01-29T13:03:19.514Z,3.00
2023-01-29T13:05:56.610Z,3.10
2023-01-29T13:08:49.506Z,3.10
2023-01-29T13:12:12.559Z,3.10
2023-01-29T13:14:52.609Z,3.30
2023-01-29T13:17:47.560Z,3.50
2023-01-29T13:20:25.300Z,3.70
2023-01-29T13:22:56.382Z,3.80
2023-01-29T13:27:51.496Z,3.80
2023-01-29T13:30:44.436Z,3.80
2023-01-29T13:33:23.122Z,3.70
2023-01-29T13:35:59.354Z,3.50
2023-01-29T13:38:30.787Z,3.40
2023-01-29T13:41:02.018Z,3.30
2023-01-29T13:43:41.430Z,3.30
2023-01-29T13:46:14.853Z,3.20
2023-01-29T13:48:44.421Z,3.20
2023-01-29T13:51:16.999Z,3.30
2023-01-29T13:53:52.287Z,3.50
2023-01-29T13:56:45.289Z,3.40
2023-01-29T13:59:25.229Z,3.60
2023-01-29T14:06:51.591Z,3.60
2023-01-29T14:09:36.076Z,3.80
2023-01-29T14:12:21.669Z,3.70
2023-01-29T14:17:17.473Z,3.70
2023-01-29T14:19:52.796Z,3.60
2023-01-29T14:22:27.041Z,3.60
2023-01-29T14:24:56.827Z,3.60
2023-01-29T14:27:27.923Z,3.60
2023-01-29T14:30:06.645Z,3.50
2023-01-29T14:32:33.810Z,3.50
2023-01-29T14:40:07.502Z,3.30
2023-01-29T14:42:55.189Z,3.30
2023-01-29T14:45:37.999Z,3.30
2023-01-29T14:48:10.492Z,3.30
2023-01-29T14:50:37.733Z,3.20
2023-01-29T14:53:35.118Z,3.20
2023-01-29T14:56:01.796Z,3.30
2023-01-29T14:58:44.749Z,3.20
2023-01-29T15:01:32.034Z,3.30
2023-01-29T15:04:13.116Z,3.30
2023-01-29T15:09:18.127Z,3.20
2023-01-29T15:11:54.523Z,3.20
2023-01-29T15:14:30.284Z,3.20
2023-01-29T15:17:07.287Z,3.20
2023-01-29T15:19:40.156Z,3.10
2023-01-29T15:22:11.713Z,3.10
2023-01-29T15:24:39.778Z,3.10
2023-01-29T15:27:11.315Z,3.10
2023-01-29T15:29:39.206Z,3.10
2023-01-29T15:32:06.646Z,3.10
2023-01-29T15:34:34.426Z,3.10
2023-01-29T15:37:01.912Z,3.10
2023-01-29T15:42:23.409Z,3.10
2023-01-29T15:44:50.118Z,3.10
2023-01-29T15:47:17.234Z,3.10
2023-01-29T15:49:46.854Z,3.20
2023-01-29T15:52:21.733Z,3.20
2023-01-29T15:54:48.663Z,3.20
2023-01-29T15:57:25.724Z,3.80
2023-01-29T15:59:54.608Z,3.30
2023-01-29T16:02:40.448Z,3.30
2023-01-29T16:05:23.810Z,3.30
2023-01-29T16:07:51.846Z,3.30
2023-01-29T16:10:36.896Z,3.30
2023-01-29T16:13:03.878Z,3.30
2023-01-29T16:15:40.123Z,3.30
2023-01-29T16:18:34.570Z,3.30
2023-01-29T16:21:08.787Z,3.30
2023-01-29T16:23:40.721Z,3.30
2023-01-29T16:26:12.590Z,3.30
2023-01-29T16:28:46.308Z,3.30
2023-01-29T16:31:20.413Z,3.30
2023-01-29T16:36:22.810Z,3.20
2023-01-29T16:39:02.305Z,3.30
2023-01-29T16:41:36.006Z,3.20
2023-01-29T16:44:23.546Z,3.20
2023-01-29T16:49:26.429Z,3.20
2023-01-29T16:51:56.310Z,3.30
2023-01-29T16:54:27.739Z,3.30
2023-01-29T16:57:00.294Z,3.30
2023-01-29T16:59:36.143Z,3.20
2023-01-29T17:02:04.308Z,3.20
2023-01-29T17:07:01.849Z,3.20
2023-01-29T17:09:34.436Z,3.20
2023-01-29T17:12:06.037Z,3.20
2023-01-29T17:14:34.425Z,3.20
2023-01-29T17:17:03.288Z,3.10
2023-01-29T17:19:30.287Z,3.20
2023-01-29T17:21:58.393Z,3.20
2023-01-29T17:24:25.818Z,3.20
2023-01-29T17:26:53.631Z,3.20
2023-01-29T17:29:27.289Z,3.10
2023-01-29T17:34:23.981Z,3.10
2023-01-29T17:39:21.985Z,3.10
2023-01-29T17:41:52.655Z,3.10
2023-01-29T17:44:20.189Z,3.10
2023-01-29T17:49:20.113Z,3.00
2023-01-29T17:59:23.635Z,2.90
2023-01-29T18:01:51.335Z,2.90
2023-01-29T18:04:18.251Z,2.90
2023-01-29T18:06:47.675Z,2.90
2023-01-29T18:09:15.922Z,2.90
2023-01-29T18:11:43.208Z,2.90
2023-01-29T18:14:14.043Z,2.90
2023-01-29T18:16:42.657Z,2.90
2023-01-29T18:19:15.262Z,2.90
2023-01-29T18:21:41.941Z,2.90
2023-01-29T18:26:36.081Z,2.90
2023-01-29T18:29:03.657Z,2.90
2023-01-29T18:33:57.701Z,3.00
2023-01-29T18:36:24.666Z,2.90
2023-01-29T18:38:51.419Z,2.90
2023-01-29T18:41:18.195Z,2.90
2023-01-29T18:43:44.901Z,2.90
2023-01-29T18:46:11.834Z,2.90
2023-01-29T18:48:39.554Z,2.90
2023-01-29T18:53:34.797Z,3.00
2023-01-29T18:56:04.674Z,3.00
2023-01-29T18:58:35.350Z,2.90
2023-01-29T19:01:09.099Z,2.90
2023-01-29T19:06:05.516Z,2.90
2023-01-29T19:08:33.741Z,2.90
2023-01-29T19:11:03.815Z,2.90
2023-01-29T19:13:32.098Z,2.90
2023-01-29T19:18:27.098Z,3.00
2023-01-29T19:20:54.535Z,3.00
2023-01-29T19:23:21.876Z,3.00
2023-01-29T19:28:15.840Z,3.00
2023-01-29T19:35:38.182Z,3.00
2023-01-29T19:38:05.293Z,2.90
2023-01-29T19:42:59.463Z,2.90
2023-01-29T19:48:14.482Z,2.90
2023-01-29T19:55:35.439Z,2.80
2023-01-29T19:58:03.479Z,2.90
2023-01-29T20:00:30.251Z,2.90
2023-01-29T20:07:53.803Z,2.90
2023-01-29T20:15:15.703Z,2.90
2023-01-29T20:17:43.547Z,2.80
2023-01-29T20:20:10.834Z,2.90
2023-01-29T20:29:59.729Z,2.90
2023-01-29T20:34:53.623Z,3.00
2023-01-29T20:39:47.611Z,3.00
2023-01-29T20:42:14.482Z,3.00
2023-01-29T20:49:36.136Z,3.00
2023-01-29T20:56:59.965Z,3.10
2023-01-29T20:59:28.957Z,3.10
2023-01-29T21:04:23.160Z,3.20
2023-01-29T21:09:16.974Z,3.20
2023-01-29T21:19:06.544Z,3.40
2023-01-29T21:28:55.649Z,3.30
2023-01-29T21:31:22.459Z,3.40
2023-01-29T21:33:49.209Z,3.40
2023-01-29T21:43:38.138Z,3.40
2023-01-29T21:46:11.855Z,3.30
2023-01-29T21:48:40.179Z,3.40
2023-01-29T21:53:34.892Z,3.40
2023-01-29T21:56:03.216Z,3.40
2023-01-29T22:00:57.387Z,3.50
2023-01-29T22:06:14.610Z,3.60
2023-01-29T22:08:41.283Z,3.50
2023-01-29T22:13:35.763Z,3.60
2023-01-29T22:16:02.498Z,3.60
2023-01-29T22:20:56.708Z,3.60
2023-01-29T22:23:24.441Z,3.50
2023-01-29T22:28:18.726Z,3.50
2023-01-29T22:35:40.049Z,3.40
2023-01-29T22:47:55.558Z,3.40
2023-01-29T22:52:53.922Z,3.40
2023-01-29T22:55:20.982Z,3.40
2023-01-29T22:57:50.778Z,3.40
2023-01-29T23:00:18.204Z,3.40
2023-01-29T23:02:47.118Z,3.40
2023-01-29T23:05:13.880Z,3.40
2023-01-29T23:10:08.346Z,3.40
2023-01-29T23:19:56.316Z,3.50
2023-01-29T23:22:23.084Z,3.50
2023-01-29T23:27:16.857Z,3.50
2023-01-29T23:32:14.801Z,3.60
2023-01-29T23:34:41.761Z,3.60
2023-01-29T23:39:35.651Z,3.60
2023-01-29T23:44:29.598Z,3.60
2023-01-29T23:54:18.506Z,3.70
2023-01-29T23:59:12.677Z,3.70
